Time;durP1;ratioP1;P1;durP2;ratioP2;P2;SDS_P1;SDS_P2;PMS_P1;PMS_P2;Temp;Humidity;BMP_temperature;BMP_pressure;BME280_temperature;BME280_humidity;BME280_pressure;Samples;Min_cycle;Max_cycle;Signal;HPM_P1;HPM_P2
2023/11/02 00:00:37;;;;;;;28.48;14.20;;;;;;;;;;5033639;28;20075;-78
2023/11/02 00:03:04;;;;;;;29.50;15.10;;;;;;;;;;5017950;28;20537;-79
2023/11/02 00:05:50;;;;;;;31.40;16.30;;;;;;;;;;5034152;28;20068;-78
2023/11/02 00:08:16;;;;;;;32.03;16.10;;;;;;;;;;5070851;28;20141;-79
2023/11/02 00:10:43;;;;;;;30.05;16.00;;;;;;;;;;5021339;28;20032;-78
2023/11/02 00:13:17;;;;;;;27.25;14.88;;;;;;;;;;5020725;28;20052;-79
2023/11/02 00:15:46;;;;;;;25.52;14.07;;;;;;;;;;4996542;28;20071;-79
2023/11/02 00:18:12;;;;;;;26.92;14.40;;;;;;;;;;4981628;28;20041;-79
2023/11/02 00:20:38;;;;;;;30.95;14.15;;;;;;;;;;5012336;28;20072;-79
2023/11/02 00:23:06;;;;;;;29.77;13.75;;;;;;;;;;4984082;28;20064;-79
2023/11/02 00:26:03;;;;;;;23.65;12.68;;;;;;;;;;5017481;28;20072;-77
2023/11/02 00:28:31;;;;;;;31.88;12.85;;;;;;;;;;4974919;28;20464;-78
2023/11/02 00:30:56;;;;;;;24.65;12.10;;;;;;;;;;4990619;28;20140;-77
2023/11/02 00:33:22;;;;;;;27.42;12.95;;;;;;;;;;4958287;28;20927;-76
2023/11/02 00:35:50;;;;;;;23.50;12.80;;;;;;;;;;4990284;28;20046;-76
2023/11/02 00:38:21;;;;;;;25.52;12.50;;;;;;;;;;4958298;28;20459;-75
2023/11/02 00:40:47;;;;;;;22.60;12.30;;;;;;;;;;4990245;28;20112;-77
2023/11/02 00:43:14;;;;;;;22.17;12.57;;;;;;;;;;4974365;28;20449;-75
2023/11/02 00:45:44;;;;;;;24.63;12.20;;;;;;;;;;5014600;28;20159;-76
2023/11/02 00:48:15;;;;;;;20.55;12.10;;;;;;;;;;5090673;28;20362;-76
2023/11/02 00:50:44;;;;;;;22.60;12.77;;;;;;;;;;5092031;28;20428;-78
2023/11/02 00:53:11;;;;;;;24.38;12.00;;;;;;;;;;5091657;28;20478;-78
2023/11/02 00:55:37;;;;;;;22.17;13.02;;;;;;;;;;5112490;28;20394;-78
2023/11/02 00:58:07;;;;;;;22.60;12.30;;;;;;;;;;5095729;28;20039;-78
2023/11/02 01:00:55;;;;;;;28.45;13.23;;;;;;;;;;5096108;28;20159;-78
2023/11/02 01:03:22;;;;;;;25.85;14.10;;;;;;;;;;5060744;28;20040;-78
2023/11/02 01:05:48;;;;;;;28.98;14.20;;;;;;;;;;5053816;28;20411;-74
2023/11/02 01:08:14;;;;;;;27.38;14.27;;;;;;;;;;5037361;28;20048;-75
2023/11/02 01:10:41;;;;;;;30.13;15.85;;;;;;;;;;5053480;28;20049;-78
2023/11/02 01:13:16;;;;;;;23.42;14.10;;;;;;;;;;5004484;28;20498;-78
2023/11/02 01:16:17;;;;;;;30.52;14.75;;;;;;;;;;5054147;28;20522;-77
2023/11/02 01:18:45;;;;;;;29.48;15.38;;;;;;;;;;4962019;28;20054;-76
2023/11/02 01:21:13;;;;;;;27.20;15.63;;;;;;;;;;4977950;28;20426;-76
2023/11/02 01:23:38;;;;;;;34.28;17.95;;;;;;;;;;4939420;29;20043;-76
2023/11/02 01:26:04;;;;;;;34.13;17.35;;;;;;;;;;4949046;28;20493;-76
2023/11/02 01:28:51;;;;;;;31.10;17.17;;;;;;;;;;4981000;28;20348;-75
2023/11/02 01:31:18;;;;;;;31.85;16.88;;;;;;;;;;4997214;28;20054;-76
2023/11/02 01:33:50;;;;;;;29.30;16.15;;;;;;;;;;4951908;28;20106;-77
2023/11/02 01:36:24;;;;;;;33.17;16.77;;;;;;;;;;4973936;28;20387;-76
2023/11/02 01:38:53;;;;;;;28.13;16.40;;;;;;;;;;4986307;28;20042;-77
2023/11/02 01:41:28;;;;;;;28.50;16.98;;;;;;;;;;5016406;28;20059;-77
2023/11/02 01:43:55;;;;;;;37.10;16.27;;;;;;;;;;5023529;28;20078;-77
2023/11/02 01:46:23;;;;;;;29.48;16.40;;;;;;;;;;5039903;28;20123;-77
2023/11/02 01:48:57;;;;;;;29.83;15.70;;;;;;;;;;5056523;28;20045;-76
2023/11/02 01:51:27;;;;;;;25.42;14.23;;;;;;;;;;5039545;28;20036;-76
2023/11/02 01:54:04;;;;;;;26.42;14.00;;;;;;;;;;5044685;28;20047;-76
2023/11/02 01:56:54;;;;;;;28.90;14.90;;;;;;;;;;5111063;28;20043;-77
2023/11/02 01:59:39;;;;;;;26.50;14.35;;;;;;;;;;5074794;28;20127;-76
2023/11/02 02:02:23;;;;;;;28.92;16.42;;;;;;;;;;5078225;28;20035;-77
2023/11/02 02:04:59;;;;;;;32.00;15.82;;;;;;;;;;5094850;28;20497;-76
2023/11/02 02:07:24;;;;;;;31.20;15.90;;;;;;;;;;5078082;28;20040;-76
2023/11/02 02:10:00;;;;;;;30.00;15.93;;;;;;;;;;5095111;28;20047;-76
2023/11/02 02:12:43;;;;;;;28.23;16.63;;;;;;;;;;5094868;28;20047;-77
2023/11/02 02:15:30;;;;;;;33.22;17.58;;;;;;;;;;5077070;28;20040;-76
2023/11/02 02:18:02;;;;;;;30.85;16.85;;;;;;;;;;5093824;28;20169;-76
2023/11/02 02:20:32;;;;;;;32.83;16.63;;;;;;;;;;5110803;28;20043;-76
2023/11/02 02:22:59;;;;;;;46.13;16.90;;;;;;;;;;5094123;28;20255;-76
2023/11/02 02:25:50;;;;;;;34.80;17.23;;;;;;;;;;5075955;28;20051;-74
2023/11/02 02:28:23;;;;;;;31.80;17.63;;;;;;;;;;5093356;28;20127;-74
2023/11/02 02:31:08;;;;;;;41.47;19.92;;;;;;;;;;5076674;28;20489;-78
2023/11/02 02:33:52;;;;;;;39.00;19.73;;;;;;;;;;5038804;28;20056;-76
2023/11/02 02:36:19;;;;;;;30.63;18.05;;;;;;;;;;5038755;28;20532;-76
2023/11/02 02:38:52;;;;;;;34.50;18.80;;;;;;;;;;5022038;28;20040;-76
2023/11/02 02:41:20;;;;;;;35.55;20.17;;;;;;;;;;5038670;28;20134;-76
2023/11/02 02:43:50;;;;;;;31.38;18.40;;;;;;;;;;5038741;28;20044;-76
2023/11/02 02:46:18;;;;;;;35.17;19.90;;;;;;;;;;5038580;28;20099;-76
2023/11/02 02:48:45;;;;;;;39.95;20.23;;;;;;;;;;5055222;28;20231;-76
2023/11/02 02:51:11;;;;;;;36.88;20.88;;;;;;;;;;5055293;28;20143;-79
2023/11/02 02:53:39;;;;;;;38.78;20.48;;;;;;;;;;5038789;28;20082;-76
2023/11/02 02:56:08;;;;;;;40.85;20.65;;;;;;;;;;5022447;28;20032;-76
2023/11/02 02:58:38;;;;;;;39.78;20.77;;;;;;;;;;5038694;28;20441;-76
2023/11/02 03:01:04;;;;;;;37.33;22.83;;;;;;;;;;5056164;28;20040;-76
2023/11/02 03:03:33;;;;;;;55.28;29.00;;;;;;;;;;5041480;28;20037;-76
2023/11/02 03:05:59;;;;;;;53.80;28.88;;;;;;;;;;5076396;28;20097;-77
2023/11/02 03:08:27;;;;;;;55.13;32.33;;;;;;;;;;5059203;28;20028;-77
2023/11/02 03:10:54;;;;;;;55.80;30.35;;;;;;;;;;5076113;28;20078;-77
2023/11/02 03:13:22;;;;;;;58.58;31.02;;;;;;;;;;5051471;28;20487;-77
2023/11/02 03:15:51;;;;;;;56.28;33.75;;;;;;;;;;5034477;28;20117;-78
2023/11/02 03:18:18;;;;;;;60.25;32.33;;;;;;;;;;5002018;28;20036;-77
2023/11/02 03:20:47;;;;;;;62.40;34.28;;;;;;;;;;5035359;28;20060;-77
2023/11/02 03:23:22;;;;;;;63.75;34.38;;;;;;;;;;5019465;28;20045;-77
2023/11/02 03:25:56;;;;;;;48.60;29.05;;;;;;;;;;5035624;28;20036;-76
2023/11/02 03:28:30;;;;;;;48.90;28.50;;;;;;;;;;5003532;28;20032;-78
2023/11/02 03:31:04;;;;;;;53.53;28.58;;;;;;;;;;5018237;28;20047;-76
2023/11/02 03:33:30;;;;;;;51.42;26.27;;;;;;;;;;5033948;28;20598;-74
2023/11/02 03:36:01;;;;;;;45.80;24.48;;;;;;;;;;5034357;28;20131;-74
2023/11/02 03:38:56;;;;;;;44.40;22.50;;;;;;;;;;5017577;28;20140;-73
2023/11/02 03:41:36;;;;;;;39.47;21.13;;;;;;;;;;5034211;28;20072;-75
2023/11/02 03:44:06;;;;;;;44.70;23.15;;;;;;;;;;5055150;28;20052;-75
2023/11/02 03:46:32;;;;;;;39.50;20.88;;;;;;;;;;5091106;28;20453;-72
2023/11/02 03:48:58;;;;;;;39.55;20.80;;;;;;;;;;5091670;28;20083;-72
2023/11/02 03:51:23;;;;;;;36.80;20.23;;;;;;;;;;5058186;28;20031;-75
2023/11/02 03:54:28;;;;;;;39.53;20.98;;;;;;;;;;5074878;28;20486;-73
2023/11/02 03:57:03;;;;;;;38.75;21.35;;;;;;;;;;5038655;28;20064;-73
2023/11/02 03:59:42;;;;;;;37.35;20.40;;;;;;;;;;5039003;28;20041;-73
2023/11/02 04:02:21;;;;;;;25.98;14.27;;;;;;;;;;5006734;28;20044;-72
2023/11/02 04:04:48;;;;;;;12.52;7.55;;;;;;;;;;5022698;28;20029;-72
2023/11/02 04:07:22;;;;;;;9.20;4.80;;;;;;;;;;5027756;28;20487;-73
2023/11/02 04:09:52;;;;;;;6.57;4.35;;;;;;;;;;5076060;28;20347;-72
2023/11/02 04:12:19;;;;;;;;;;;;;;;;;;5073016;28;20047;-73
2023/11/02 04:14:48;;;;;;;6.90;4.35;;;;;;;;;;5076024;28;19911;-74
2023/11/02 04:17:13;;;;;;;4.28;3.28;;;;;;;;;;5085752;28;20028;-73
2023/11/02 04:19:39;;;;;;;5.68;3.03;;;;;;;;;;5080879;28;20455;-76
2023/11/02 04:22:06;;;;;;;6.15;2.92;;;;;;;;;;5100687;28;20039;-72
2023/11/02 04:24:43;;;;;;;5.07;3.30;;;;;;;;;;5088911;28;20450;-71
2023/11/02 04:27:09;;;;;;;3.97;2.80;;;;;;;;;;5101070;28;20061;-72
2023/11/02 04:29:35;;;;;;;5.15;3.47;;;;;;;;;;5101520;28;20504;-72
2023/11/02 04:32:00;;;;;;;4.85;2.80;;;;;;;;;;5099709;28;20051;-73
2023/11/02 04:34:26;;;;;;;2.67;2.33;;;;;;;;;;5092358;28;20028;-73
2023/11/02 04:36:53;;;;;;;5.45;2.63;;;;;;;;;;5099339;28;20539;-73
2023/11/02 04:39:19;;;;;;;3.90;2.25;;;;;;;;;;5092339;28;20028;-68
2023/11/02 04:41:45;;;;;;;4.28;2.50;;;;;;;;;;5100932;28;20038;-69
2023/11/02 04:44:11;;;;;;;2.15;1.95;;;;;;;;;;5101658;28;20111;-69
2023/11/02 04:46:37;;;;;;;4.82;2.42;;;;;;;;;;5081973;28;20055;-71
2023/11/02 04:49:03;;;;;;;6.18;2.40;;;;;;;;;;5102402;28;20088;-71
2023/11/02 04:51:29;;;;;;;3.92;2.45;;;;;;;;;;5092219;28;20082;-70
2023/11/02 04:53:56;;;;;;;4.18;2.60;;;;;;;;;;5072203;28;20067;-69
2023/11/02 04:56:22;;;;;;;3.55;2.50;;;;;;;;;;5089760;28;20032;-69
2023/11/02 04:58:47;;;;;;;4.97;2.60;;;;;;;;;;5090621;28;20093;-67
2023/11/02 05:01:14;;;;;;;3.17;2.30;;;;;;;;;;5090769;28;20040;-65
2023/11/02 05:03:40;;;;;;;4.57;2.70;;;;;;;;;;5088685;28;20114;-64
2023/11/02 05:06:05;;;;;;;4.47;2.67;;;;;;;;;;5097055;28;20504;-63
2023/11/02 05:08:31;;;;;;;2.50;2.22;;;;;;;;;;5096577;28;20031;-64
2023/11/02 05:10:56;;;;;;;2.75;2.40;;;;;;;;;;5089352;28;20039;-64
2023/11/02 05:13:22;;;;;;;4.30;2.42;;;;;;;;;;5087753;28;20047;-64
2023/11/02 05:15:48;;;;;;;4.68;3.15;;;;;;;;;;5087551;28;20027;-64
2023/11/02 05:18:14;;;;;;;4.00;2.35;;;;;;;;;;5071360;28;20040;-64
2023/11/02 05:20:39;;;;;;;3.92;2.42;;;;;;;;;;5088928;28;20059;-64
2023/11/02 05:23:07;;;;;;;3.92;2.30;;;;;;;;;;5072651;28;20040;-63
2023/11/02 05:25:33;;;;;;;3.10;1.95;;;;;;;;;;5090016;28;20165;-63
2023/11/02 05:27:59;;;;;;;8.82;2.80;;;;;;;;;;5088875;28;20138;-63
2023/11/02 05:30:26;;;;;;;4.72;2.30;;;;;;;;;;5089172;28;20182;-64
2023/11/02 05:32:52;;;;;;;3.40;2.55;;;;;;;;;;5089556;28;20126;-63
2023/11/02 05:35:17;;;;;;;3.45;2.20;;;;;;;;;;5090538;28;20123;-63
2023/11/02 05:37:43;;;;;;;6.05;2.53;;;;;;;;;;5090151;28;20104;-64
2023/11/02 05:40:10;;;;;;;4.53;2.70;;;;;;;;;;5090866;28;20724;-63
2023/11/02 05:42:36;;;;;;;2.65;2.30;;;;;;;;;;5093792;28;20069;-64
2023/11/02 05:45:02;;;;;;;4.93;2.63;;;;;;;;;;5094182;28;20032;-64
2023/11/02 05:47:31;;;;;;;4.85;2.30;;;;;;;;;;5059981;28;20120;-63
2023/11/02 05:49:57;;;;;;;4.07;2.53;;;;;;;;;;5092614;28;20035;-63
2023/11/02 05:52:23;;;;;;;2.65;1.83;;;;;;;;;;5093694;28;20135;-63
2023/11/02 05:54:48;;;;;;;4.25;2.28;;;;;;;;;;5076003;28;20132;-64
2023/11/02 05:57:14;;;;;;;5.50;2.42;;;;;;;;;;5093013;28;20468;-63
2023/11/02 05:59:40;;;;;;;3.15;2.28;;;;;;;;;;5092611;28;20032;-63
2023/11/02 06:02:07;;;;;;;3.97;2.40;;;;;;;;;;5092283;28;20032;-63
2023/11/02 06:04:33;;;;;;;5.72;2.53;;;;;;;;;;5093654;28;20036;-63
2023/11/02 06:06:58;;;;;;;3.45;2.30;;;;;;;;;;5092652;28;20043;-64
2023/11/02 06:09:24;;;;;;;7.10;2.85;;;;;;;;;;5091679;28;20028;-64
2023/11/02 06:11:49;;;;;;;2.67;1.90;;;;;;;;;;5074768;28;20035;-64
2023/11/02 06:14:15;;;;;;;3.90;2.30;;;;;;;;;;5093284;28;20046;-63
2023/11/02 06:16:41;;;;;;;5.63;2.55;;;;;;;;;;5053973;28;20189;-63
2023/11/02 06:19:07;;;;;;;4.30;2.30;;;;;;;;;;5037349;28;20045;-64
2023/11/02 06:21:33;;;;;;;4.35;2.38;;;;;;;;;;5071024;28;20044;-63
2023/11/02 06:23:59;;;;;;;4.28;2.42;;;;;;;;;;5070927;28;20040;-64
2023/11/02 06:26:24;;;;;;;3.95;2.10;;;;;;;;;;5070953;28;20040;-64
2023/11/02 06:28:50;;;;;;;4.32;2.20;;;;;;;;;;5071231;28;20036;-64
2023/11/02 06:31:16;;;;;;;3.55;2.28;;;;;;;;;;5037672;28;20428;-63
2023/11/02 06:33:42;;;;;;;3.08;2.28;;;;;;;;;;5070468;28;20140;-63
2023/11/02 06:36:08;;;;;;;3.00;2.22;;;;;;;;;;5053944;28;20147;-64
2023/11/02 06:38:33;;;;;;;3.17;2.00;;;;;;;;;;5054072;28;20033;-63
2023/11/02 06:40:59;;;;;;;4.47;2.30;;;;;;;;;;5070599;28;20127;-63
2023/11/02 06:43:26;;;;;;;3.20;2.10;;;;;;;;;;5070543;28;20041;-64
2023/11/02 06:45:53;;;;;;;2.42;1.73;;;;;;;;;;5070480;28;20383;-63
2023/11/02 06:48:20;;;;;;;2.72;1.92;;;;;;;;;;5082790;28;20150;-64
2023/11/02 06:50:49;;;;;;;5.78;2.10;;;;;;;;;;5090673;28;20039;-64
2023/11/02 06:53:15;;;;;;;3.15;2.38;;;;;;;;;;5092667;28;20092;-63
2023/11/02 06:55:41;;;;;;;5.38;2.20;;;;;;;;;;5092427;28;20503;-64
2023/11/02 06:58:06;;;;;;;3.50;2.10;;;;;;;;;;5092239;28;20024;-63
2023/11/02 07:00:33;;;;;;;4.95;2.10;;;;;;;;;;5074664;28;20047;-64
2023/11/02 07:02:59;;;;;;;2.80;2.10;;;;;;;;;;5074672;28;20032;-63
2023/11/02 07:05:25;;;;;;;3.28;1.98;;;;;;;;;;5092417;28;20133;-63
2023/11/02 07:07:51;;;;;;;4.03;1.92;;;;;;;;;;5092016;28;20526;-64
2023/11/02 07:10:17;;;;;;;2.55;2.17;;;;;;;;;;5074436;28;20040;-64
2023/11/02 07:12:44;;;;;;;3.47;1.95;;;;;;;;;;5074018;28;20557;-64
2023/11/02 07:15:10;;;;;;;3.92;2.10;;;;;;;;;;5092333;28;20134;-64
2023/11/02 07:17:36;;;;;;;3.75;2.35;;;;;;;;;;5074430;28;20044;-64
2023/11/02 07:20:04;;;;;;;3.40;2.00;;;;;;;;;;5074564;28;20126;-64
2023/11/02 07:22:30;;;;;;;7.18;2.05;;;;;;;;;;5091232;28;20058;-64
2023/11/02 07:24:56;;;;;;;5.53;1.90;;;;;;;;;;5091466;28;20378;-64
2023/11/02 07:27:23;;;;;;;2.72;2.15;;;;;;;;;;5092606;28;20146;-63
2023/11/02 07:29:49;;;;;;;5.47;2.00;;;;;;;;;;5092371;28;20089;-64
2023/11/02 07:32:14;;;;;;;2.80;2.00;;;;;;;;;;5091703;28;20044;-64
2023/11/02 07:34:40;;;;;;;3.15;2.35;;;;;;;;;;5091901;28;20048;-64
2023/11/02 07:37:05;;;;;;;4.53;2.10;;;;;;;;;;5090914;28;20032;-63
2023/11/02 07:39:33;;;;;;;6.70;2.55;;;;;;;;;;5093324;28;20055;-65
2023/11/02 07:42:00;;;;;;;3.47;2.22;;;;;;;;;;5092903;28;20063;-64
2023/11/02 07:44:25;;;;;;;2.83;2.03;;;;;;;;;;5090683;28;20086;-64
2023/11/02 07:46:51;;;;;;;2.85;2.17;;;;;;;;;;5092001;28;20120;-65
2023/11/02 07:49:17;;;;;;;4.47;2.20;;;;;;;;;;5091769;28;20032;-64
2023/11/02 07:51:42;;;;;;;3.47;1.98;;;;;;;;;;5073397;28;20108;-64
2023/11/02 07:54:09;;;;;;;5.05;2.00;;;;;;;;;;5091241;28;20146;-64
2023/11/02 07:56:36;;;;;;;4.32;1.95;;;;;;;;;;5090615;28;20052;-64
2023/11/02 07:59:02;;;;;;;3.55;2.20;;;;;;;;;;5091553;28;20492;-63
2023/11/02 08:01:28;;;;;;;3.85;1.77;;;;;;;;;;5090555;28;20036;-63
2023/11/02 08:03:54;;;;;;;3.20;1.70;;;;;;;;;;5091156;28;20144;-63
2023/11/02 08:06:19;;;;;;;4.20;2.00;;;;;;;;;;5090662;28;20493;-64
2023/11/02 08:08:45;;;;;;;2.17;1.60;;;;;;;;;;5091238;28;20046;-64
2023/11/02 08:11:11;;;;;;;2.10;1.90;;;;;;;;;;5090935;28;20043;-64
2023/11/02 08:13:37;;;;;;;4.05;1.83;;;;;;;;;;5090644;28;20040;-64
2023/11/02 08:16:03;;;;;;;2.97;1.90;;;;;;;;;;5090975;28;20589;-64
2023/11/02 08:18:29;;;;;;;4.35;2.00;;;;;;;;;;5090043;28;20134;-63
2023/11/02 08:20:54;;;;;;;2.30;1.90;;;;;;;;;;5090918;28;20043;-64
2023/11/02 08:23:21;;;;;;;2.88;1.73;;;;;;;;;;5090298;28;20035;-64
2023/11/02 08:25:47;;;;;;;2.85;1.90;;;;;;;;;;5091106;28;20043;-64
2023/11/02 08:28:15;;;;;;;3.78;1.70;;;;;;;;;;5090887;28;20040;-64
2023/11/02 08:30:40;;;;;;;2.85;2.10;;;;;;;;;;5090907;28;20059;-65
2023/11/02 08:33:07;;;;;;;4.40;2.20;;;;;;;;;;5089588;28;20136;-64
2023/11/02 08:35:32;;;;;;;3.58;2.08;;;;;;;;;;5089091;28;20058;-64
2023/11/02 08:37:59;;;;;;;4.55;2.05;;;;;;;;;;5090621;28;20051;-63
2023/11/02 08:40:24;;;;;;;5.22;2.13;;;;;;;;;;5091076;28;20042;-65
2023/11/02 08:42:50;;;;;;;6.05;2.08;;;;;;;;;;5089915;28;20122;-64
2023/11/02 08:45:17;;;;;;;9.20;2.28;;;;;;;;;;5090259;28;20036;-65
2023/11/02 08:47:43;;;;;;;4.10;1.80;;;;;;;;;;5090577;28;20040;-64
2023/11/02 08:50:09;;;;;;;3.83;1.80;;;;;;;;;;5072413;28;20039;-64
2023/11/02 08:52:35;;;;;;;3.10;1.52;;;;;;;;;;5090489;28;20036;-64
2023/11/02 08:55:03;;;;;;;3.55;1.42;;;;;;;;;;5090088;28;20039;-64
2023/11/02 08:57:31;;;;;;;4.75;1.52;;;;;;;;;;5089212;28;20066;-64
2023/11/02 08:59:58;;;;;;;2.33;1.33;;;;;;;;;;5088375;28;20085;-64
2023/11/02 09:02:25;;;;;;;1.20;1.10;;;;;;;;;;5090578;28;20036;-64
2023/11/02 09:04:50;;;;;;;2.80;1.30;;;;;;;;;;5089194;28;20034;-64
2023/11/02 09:07:16;;;;;;;2.72;1.30;;;;;;;;;;5089677;28;20126;-64
2023/11/02 09:09:43;;;;;;;5.15;1.20;;;;;;;;;;5089390;28;20058;-64
2023/11/02 09:12:10;;;;;;;3.35;1.15;;;;;;;;;;5089647;28;20040;-64
2023/11/02 09:14:36;;;;;;;2.53;1.58;;;;;;;;;;5090342;28;20071;-64
2023/11/02 09:17:01;;;;;;;5.13;1.50;;;;;;;;;;5094688;28;20078;-64
2023/11/02 09:19:27;;;;;;;2.88;1.40;;;;;;;;;;5094639;28;20035;-64
2023/11/02 09:21:52;;;;;;;2.30;1.35;;;;;;;;;;5094958;28;20466;-64
2023/11/02 09:24:18;;;;;;;1.23;1.10;;;;;;;;;;5091656;28;20051;-64
2023/11/02 09:26:44;;;;;;;2.28;1.30;;;;;;;;;;5096704;28;20067;-64
2023/11/02 09:29:09;;;;;;;2.25;1.20;;;;;;;;;;5114801;28;20043;-64
2023/11/02 09:31:35;;;;;;;3.13;1.20;;;;;;;;;;5113472;28;20085;-64
2023/11/02 09:34:00;;;;;;;3.00;1.40;;;;;;;;;;5066262;28;20051;-64
2023/11/02 09:36:26;;;;;;;4.55;1.55;;;;;;;;;;5093949;28;20173;-64
2023/11/02 09:38:52;;;;;;;3.20;1.40;;;;;;;;;;5093111;28;20089;-64
2023/11/02 09:41:18;;;;;;;3.78;1.45;;;;;;;;;;5094325;28;20052;-64
2023/11/02 09:43:44;;;;;;;1.55;0.90;;;;;;;;;;5093870;28;20051;-64
2023/11/02 09:46:12;;;;;;;3.25;1.63;;;;;;;;;;5093949;28;20461;-64
2023/11/02 09:48:38;;;;;;;3.30;1.58;;;;;;;;;;5092911;28;20047;-64
2023/11/02 09:51:04;;;;;;;2.92;1.73;;;;;;;;;;5094173;28;20028;-64
2023/11/02 09:53:30;;;;;;;20.75;7.03;;;;;;;;;;5093400;28;20051;-63
2023/11/02 09:55:56;;;;;;;15.45;4.95;;;;;;;;;;5092822;28;20366;-64
2023/11/02 09:58:22;;;;;;;6.53;2.45;;;;;;;;;;5094317;28;20032;-64
2023/11/02 10:00:48;;;;;;;9.30;2.95;;;;;;;;;;5094060;28;20381;-64
2023/11/02 10:03:14;;;;;;;5.78;1.85;;;;;;;;;;5092512;28;20128;-64
2023/11/02 10:05:39;;;;;;;3.47;1.60;;;;;;;;;;5092457;28;20085;-63
2023/11/02 10:08:05;;;;;;;5.15;2.50;;;;;;;;;;5093473;28;20036;-64
2023/11/02 10:10:32;;;;;;;8.55;3.28;;;;;;;;;;5093581;28;20127;-64
2023/11/02 10:12:58;;;;;;;3.00;1.48;;;;;;;;;;5091447;28;20051;-64
2023/11/02 10:15:24;;;;;;;3.28;1.50;;;;;;;;;;5093090;28;20042;-64
2023/11/02 10:17:50;;;;;;;2.28;1.33;;;;;;;;;;5093521;28;20127;-64
2023/11/02 10:20:19;;;;;;;2.45;1.25;;;;;;;;;;5093076;28;20373;-64
2023/11/02 10:22:56;;;;;;;3.35;1.40;;;;;;;;;;5091398;28;20096;-64
2023/11/02 10:25:22;;;;;;;5.32;1.92;;;;;;;;;;5092175;28;20062;-65
2023/11/02 10:27:49;;;;;;;3.40;1.60;;;;;;;;;;5092313;28;20139;-64
2023/11/02 10:30:15;;;;;;;2.58;1.67;;;;;;;;;;5093089;28;20042;-64
2023/11/02 10:32:40;;;;;;;3.08;1.30;;;;;;;;;;5091327;28;20048;-63
2023/11/02 10:35:08;;;;;;;2.53;1.40;;;;;;;;;;5093443;28;20044;-64
2023/11/02 10:37:34;;;;;;;2.83;1.60;;;;;;;;;;5092928;28;20374;-64
2023/11/02 10:40:00;;;;;;;3.15;1.20;;;;;;;;;;5075005;28;20044;-64
2023/11/02 10:42:28;;;;;;;5.53;2.00;;;;;;;;;;5093389;28;20051;-64
2023/11/02 10:44:56;;;;;;;2.67;1.85;;;;;;;;;;5092931;28;20040;-64
2023/11/02 10:47:27;;;;;;;6.97;2.05;;;;;;;;;;5093004;28;20371;-64
2023/11/02 10:49:53;;;;;;;4.93;1.83;;;;;;;;;;5091828;28;20071;-64
2023/11/02 10:52:27;;;;;;;3.10;1.42;;;;;;;;;;5092084;28;20051;-64
2023/11/02 10:55:08;;;;;;;1.92;1.20;;;;;;;;;;5090489;28;20044;-64
2023/11/02 10:57:35;;;;;;;1.92;1.42;;;;;;;;;;5092562;28;20032;-64
2023/11/02 11:00:03;;;;;;;3.38;1.30;;;;;;;;;;5092890;28;20032;-64
2023/11/02 11:02:34;;;;;;;1.75;1.25;;;;;;;;;;5092786;28;20044;-64
2023/11/02 11:05:01;;;;;;;4.15;1.50;;;;;;;;;;5092158;28;20047;-64
2023/11/02 11:07:29;;;;;;;2.08;1.40;;;;;;;;;;5092771;28;20035;-64
2023/11/02 11:09:55;;;;;;;1.92;1.30;;;;;;;;;;5092744;28;20040;-64
2023/11/02 11:12:21;;;;;;;5.65;1.40;;;;;;;;;;5091018;28;20118;-64
2023/11/02 11:14:47;;;;;;;1.65;1.10;;;;;;;;;;5090998;28;20489;-64
2023/11/02 11:17:12;;;;;;;4.47;1.10;;;;;;;;;;5093156;28;20103;-64
2023/11/02 11:19:38;;;;;;;1.95;1.50;;;;;;;;;;5091698;28;20378;-64
2023/11/02 11:22:24;;;;;;;4.47;1.40;;;;;;;;;;5092325;28;20129;-64
2023/11/02 11:24:54;;;;;;;1.67;1.33;;;;;;;;;;5091063;28;20040;-64
2023/11/02 11:27:30;;;;;;;1.83;1.38;;;;;;;;;;5091824;28;20482;-64
2023/11/02 11:29:56;;;;;;;2.20;1.20;;;;;;;;;;5091847;28;20039;-63
2023/11/02 11:32:25;;;;;;;1.77;1.30;;;;;;;;;;5092381;28;20047;-64
2023/11/02 11:34:53;;;;;;;3.88;1.67;;;;;;;;;;5091853;28;20044;-64
2023/11/02 11:37:31;;;;;;;3.03;1.83;;;;;;;;;;5091669;28;20040;-66
2023/11/02 11:39:58;;;;;;;2.53;1.60;;;;;;;;;;5057662;28;20032;-63
2023/11/02 11:42:43;;;;;;;5.28;2.10;;;;;;;;;;5093256;28;20043;-64
2023/11/02 11:45:28;;;;;;;3.03;1.60;;;;;;;;;;5092616;28;20458;-65
2023/11/02 11:47:57;;;;;;;5.88;1.90;;;;;;;;;;5090769;28;20071;-63
2023/11/02 11:50:30;;;;;;;3.80;2.00;;;;;;;;;;5092297;28;20040;-64
2023/11/02 11:53:07;;;;;;;2.15;1.60;;;;;;;;;;5090903;28;20040;-63
2023/11/02 11:55:34;;;;;;;4.60;2.42;;;;;;;;;;5091006;28;20031;-64
2023/11/02 11:58:01;;;;;;;5.90;2.28;;;;;;;;;;5090489;28;20032;-63
2023/11/02 12:00:27;;;;;;;2.95;1.98;;;;;;;;;;5091957;28;20051;-64
2023/11/02 12:02:57;;;;;;;1.98;1.52;;;;;;;;;;5091432;28;20038;-64
2023/11/02 12:05:41;;;;;;;5.30;1.88;;;;;;;;;;5096592;28;20039;-64
2023/11/02 12:08:11;;;;;;;5.75;2.05;;;;;;;;;;5074204;28;20512;-65
2023/11/02 12:10:57;;;;;;;4.00;1.73;;;;;;;;;;5090476;28;20047;-65
2023/11/02 12:13:24;;;;;;;1.70;1.45;;;;;;;;;;5090443;28;20048;-65
2023/11/02 12:15:51;;;;;;;3.70;1.80;;;;;;;;;;5090364;28;20036;-64
2023/11/02 12:18:18;;;;;;;1.95;1.75;;;;;;;;;;5090250;28;20032;-65
2023/11/02 12:20:44;;;;;;;3.00;1.88;;;;;;;;;;5091089;28;20806;-64
2023/11/02 12:23:12;;;;;;;1.70;1.60;;;;;;;;;;5090117;28;20036;-64
2023/11/02 12:25:39;;;;;;;2.67;1.58;;;;;;;;;;5090348;28;20028;-64
2023/11/02 12:28:11;;;;;;;2.38;1.60;;;;;;;;;;5091044;28;20342;-64
2023/11/02 12:30:43;;;;;;;1.40;1.30;;;;;;;;;;5089061;28;20359;-64
2023/11/02 12:33:18;;;;;;;2.35;1.85;;;;;;;;;;5092871;28;20044;-65
2023/11/02 12:35:44;;;;;;;2.35;1.55;;;;;;;;;;5111194;28;20050;-64
2023/11/02 12:38:10;;;;;;;3.25;1.92;;;;;;;;;;5111268;28;20076;-65
2023/11/02 12:40:48;;;;;;;1.90;1.70;;;;;;;;;;5111085;28;20462;-65
2023/11/02 12:43:23;;;;;;;2.40;1.60;;;;;;;;;;5111202;28;20089;-65
2023/11/02 12:45:54;;;;;;;6.00;1.70;;;;;;;;;;5110391;28;20567;-65
2023/11/02 12:48:32;;;;;;;5.28;1.58;;;;;;;;;;5084424;28;20032;-65
2023/11/02 12:50:58;;;;;;;1.27;1.00;;;;;;;;;;5090354;28;20032;-65
2023/11/02 12:53:24;;;;;;;1.05;0.77;;;;;;;;;;5088874;28;20050;-64
2023/11/02 12:55:50;;;;;;;1.20;0.90;;;;;;;;;;5090498;28;20040;-64
2023/11/02 12:58:15;;;;;;;1.35;1.25;;;;;;;;;;5072638;28;20043;-65
2023/11/02 13:00:41;;;;;;;2.92;1.20;;;;;;;;;;5089983;28;20335;-64
2023/11/02 13:03:15;;;;;;;2.88;1.23;;;;;;;;;;5022148;28;20478;-64
2023/11/02 13:05:42;;;;;;;1.95;1.00;;;;;;;;;;5090504;28;20032;-64
2023/11/02 13:08:17;;;;;;;1.30;1.20;;;;;;;;;;5107591;28;20063;-64
2023/11/02 13:10:45;;;;;;;1.45;1.23;;;;;;;;;;5109273;28;20032;-65
2023/11/02 13:13:12;;;;;;;4.05;1.35;;;;;;;;;;5070755;28;20142;-65
2023/11/02 13:15:38;;;;;;;7.07;1.77;;;;;;;;;;5050943;28;20040;-66
2023/11/02 13:18:05;;;;;;;1.70;1.10;;;;;;;;;;5068431;28;20040;-65
2023/11/02 13:20:31;;;;;;;1.30;1.20;;;;;;;;;;5068132;28;20052;-65
2023/11/02 13:22:57;;;;;;;2.10;1.60;;;;;;;;;;5053670;28;20058;-64
2023/11/02 13:25:23;;;;;;;3.88;1.40;;;;;;;;;;5050396;28;20127;-65
2023/11/02 13:27:50;;;;;;;2.30;1.10;;;;;;;;;;5051458;28;20147;-65
2023/11/02 13:30:17;;;;;;;3.08;1.52;;;;;;;;;;5068526;28;20531;-65
2023/11/02 13:32:43;;;;;;;4.20;1.42;;;;;;;;;;5073510;28;20132;-66
2023/11/02 13:35:08;;;;;;;1.77;1.40;;;;;;;;;;5051927;28;20032;-66
2023/11/02 13:37:34;;;;;;;3.88;1.48;;;;;;;;;;5050464;28;20120;-65
2023/11/02 13:40:07;;;;;;;4.30;1.70;;;;;;;;;;5051339;28;20045;-65
2023/11/02 13:42:32;;;;;;;3.95;1.70;;;;;;;;;;5050942;28;20062;-65
2023/11/02 13:44:58;;;;;;;1.92;1.10;;;;;;;;;;5086483;28;20043;-65
2023/11/02 13:47:23;;;;;;;3.80;1.00;;;;;;;;;;5089697;28;20493;-65
2023/11/02 13:49:49;;;;;;;1.08;1.00;;;;;;;;;;5110047;28;20027;-65
2023/11/02 13:52:15;;;;;;;2.47;1.27;;;;;;;;;;5092394;28;20035;-66
2023/11/02 13:54:40;;;;;;;1.20;1.10;;;;;;;;;;5109190;28;20332;-65
2023/11/02 13:57:06;;;;;;;1.63;1.02;;;;;;;;;;5110471;28;20052;-65
2023/11/02 13:59:33;;;;;;;3.38;1.65;;;;;;;;;;5109543;28;20085;-65
2023/11/02 14:01:58;;;;;;;1.90;1.40;;;;;;;;;;5113440;28;20031;-64
2023/11/02 14:04:24;;;;;;;2.13;1.60;;;;;;;;;;5105076;28;20028;-65
2023/11/02 14:06:55;;;;;;;4.15;2.58;;;;;;;;;;5093831;28;20455;-66
2023/11/02 14:09:21;;;;;;;2.10;1.70;;;;;;;;;;5093675;28;20040;-65
2023/11/02 14:11:46;;;;;;;3.42;1.77;;;;;;;;;;5091686;28;20394;-65
2023/11/02 14:14:12;;;;;;;2.50;1.60;;;;;;;;;;5092635;28;20082;-65
2023/11/02 14:16:37;;;;;;;3.17;1.58;;;;;;;;;;5091994;28;20051;-65
2023/11/02 14:19:03;;;;;;;12.82;4.25;;;;;;;;;;5092407;28;20126;-65
2023/11/02 14:21:29;;;;;;;7.93;3.38;;;;;;;;;;5093095;28;20047;-64
2023/11/02 14:23:54;;;;;;;7.20;3.38;;;;;;;;;;5075430;28;20089;-64
2023/11/02 14:26:22;;;;;;;5.97;2.10;;;;;;;;;;5093441;28;20044;-65
2023/11/02 14:28:49;;;;;;;6.72;2.90;;;;;;;;;;5112578;28;20036;-65
2023/11/02 14:31:14;;;;;;;5.25;1.83;;;;;;;;;;5095663;28;20470;-65
2023/11/02 14:33:40;;;;;;;4.88;2.17;;;;;;;;;;5111496;28;20097;-65
2023/11/02 14:36:08;;;;;;;2.45;1.60;;;;;;;;;;5095386;28;20040;-64
2023/11/02 14:38:35;;;;;;;2.05;1.83;;;;;;;;;;5074202;28;20115;-65
2023/11/02 14:41:02;;;;;;;4.47;2.65;;;;;;;;;;5092809;28;20200;-64
2023/11/02 14:43:27;;;;;;;4.75;1.63;;;;;;;;;;5091242;28;20041;-64